Time;durP1;ratioP1;P1;durP2;ratioP2;P2;SDS_P1;SDS_P2;PMS_P1;PMS_P2;Temp;Humidity;BMP_temperature;BMP_pressure;BME280_temperature;BME280_humidity;BME280_pressure;Samples;Min_cycle;Max_cycle;Signal;HPM_P1;HPM_P2
2022/09/17 00:01:45;;;;;;;14.00;9.15;;;22.80;87.60;;;;;;1886682;75;21080;-59
2022/09/17 00:04:14;;;;;;;14.20;8.48;;;22.80;87.60;;;;;;1886651;75;21006;-59
2022/09/17 00:06:44;;;;;;;19.65;9.50;;;22.80;87.60;;;;;;1886618;76;21073;-59
2022/09/17 00:09:14;;;;;;;13.58;8.78;;;22.80;87.70;;;;;;1886631;75;21011;-59
2022/09/17 00:11:44;;;;;;;13.13;8.68;;;22.80;87.70;;;;;;1886560;76;21022;-59
2022/09/17 00:14:15;;;;;;;12.00;8.25;;;22.80;87.90;;;;;;1886770;75;21007;-59
2022/09/17 00:16:48;;;;;;;13.43;9.35;;;22.80;88.00;;;;;;1886670;75;21018;-59
2022/09/17 00:19:19;;;;;;;13.45;9.15;;;22.80;88.00;;;;;;1886749;75;21014;-59
2022/09/17 00:21:49;;;;;;;16.70;9.23;;;22.80;87.90;;;;;;1908199;74;21123;-59
2022/09/17 00:24:19;;;;;;;13.58;8.65;;;22.80;87.90;;;;;;1908211;74;21012;-59
2022/09/17 00:26:49;;;;;;;11.78;8.25;;;22.80;87.80;;;;;;1908217;74;21029;-59
2022/09/17 00:29:19;;;;;;;14.68;8.95;;;22.80;88.10;;;;;;1908130;74;21144;-59
2022/09/17 00:31:49;;;;;;;15.05;8.58;;;22.80;88.10;;;;;;1908202;75;21110;-59
2022/09/17 00:34:18;;;;;;;12.90;8.23;;;22.80;88.20;;;;;;1908233;74;20998;-59
2022/09/17 00:36:47;;;;;;;11.70;8.68;;;22.70;88.20;;;;;;1908180;75;21026;-59
2022/09/17 00:39:17;;;;;;;15.53;8.80;;;22.70;88.10;;;;;;1908253;74;21021;-59
2022/09/17 00:41:46;;;;;;;13.85;8.98;;;22.70;88.40;;;;;;1908057;74;21075;-59
2022/09/17 00:44:53;;;;;;;14.45;8.70;;;22.60;88.30;;;;;;1908241;74;21014;-59
2022/09/17 00:47:40;;;;;;;10.75;8.30;;;22.60;88.40;;;;;;1908111;75;21138;-59
2022/09/17 00:50:12;;;;;;;22.37;10.00;;;22.60;88.20;;;;;;1908246;75;21073;-59
2022/09/17 00:52:43;;;;;;;21.97;9.25;;;22.60;88.10;;;;;;1907100;74;21001;-58
2022/09/17 00:55:21;;;;;;;15.38;8.80;;;22.60;88.30;;;;;;1908232;74;21460;-59
2022/09/17 00:57:53;;;;;;;12.88;9.48;;;22.60;88.50;;;;;;1908035;74;21022;-59
2022/09/17 01:00:22;;;;;;;19.37;8.90;;;22.60;88.40;;;;;;1908102;74;21025;-59
2022/09/17 01:02:53;;;;;;;17.35;9.03;;;22.50;88.40;;;;;;1908050;74;21029;-59
2022/09/17 01:05:28;;;;;;;17.55;10.28;;;22.50;88.40;;;;;;1908069;74;21001;-59
2022/09/17 01:08:11;;;;;;;12.28;8.70;;;22.50;88.60;;;;;;1903804;73;21026;-59
2022/09/17 01:10:49;;;;;;;14.28;8.80;;;22.50;88.60;;;;;;1908293;74;21022;-59
2022/09/17 01:13:35;;;;;;;19.60;8.25;;;22.50;88.70;;;;;;1908197;75;21021;-60
2022/09/17 01:16:19;;;;;;;14.30;8.60;;;22.50;88.80;;;;;;1908218;75;21080;-59
2022/09/17 01:18:56;;;;;;;16.50;8.73;;;22.50;88.70;;;;;;1908186;74;21022;-60
2022/09/17 01:21:34;;;;;;;17.60;9.40;;;22.50;88.80;;;;;;1923246;74;21065;-59
2022/09/17 01:24:27;;;;;;;13.83;8.15;;;22.50;88.70;;;;;;1933753;73;21053;-60
2022/09/17 01:27:02;;;;;;;12.33;8.28;;;22.40;88.70;;;;;;1927323;74;21025;-60
2022/09/17 01:29:46;;;;;;;18.00;9.28;;;22.40;88.60;;;;;;1925818;74;21488;-60
2022/09/17 01:32:19;;;;;;;12.65;8.48;;;22.40;88.70;;;;;;1925902;73;21022;-59
2022/09/17 01:35:15;;;;;;;17.23;8.73;;;22.40;88.70;;;;;;1926844;74;21022;-60
2022/09/17 01:37:49;;;;;;;13.15;8.33;;;22.40;88.70;;;;;;1927387;74;21021;-59
2022/09/17 01:40:37;;;;;;;16.73;8.78;;;22.30;88.60;;;;;;1926916;74;21120;-59
2022/09/17 01:43:09;;;;;;;18.55;10.20;;;22.30;88.60;;;;;;1925897;74;21034;-59
2022/09/17 01:45:56;;;;;;;13.10;8.95;;;22.30;88.60;;;;;;1927433;74;21096;-60
2022/09/17 01:48:32;;;;;;;15.68;8.50;;;22.30;88.70;;;;;;1927359;74;21492;-60
2022/09/17 01:51:10;;;;;;;14.35;8.88;;;22.30;88.70;;;;;;1927313;74;21025;-60
2022/09/17 01:53:48;;;;;;;14.87;9.05;;;22.30;88.70;;;;;;1927445;74;21476;-60
2022/09/17 01:56:20;;;;;;;14.07;8.25;;;22.20;88.60;;;;;;1927441;74;21021;-60
2022/09/17 01:58:54;;;;;;;17.67;9.95;;;22.20;88.40;;;;;;1927453;74;21484;-60
2022/09/17 02:01:28;;;;;;;10.98;8.28;;;22.20;88.40;;;;;;1922356;72;21081;-60
2022/09/17 02:04:08;;;;;;;10.35;7.62;;;22.20;88.70;;;;;;1923881;74;21018;-60
2022/09/17 02:06:39;;;;;;;14.90;8.53;;;22.20;88.50;;;;;;1923733;74;21127;-59
2022/09/17 02:09:17;;;;;;;22.45;9.30;;;22.20;88.60;;;;;;1923836;74;21414;-59
2022/09/17 02:11:49;;;;;;;12.45;9.28;;;22.10;88.60;;;;;;1923888;74;21088;-59
2022/09/17 02:14:22;;;;;;;20.08;10.72;;;22.10;88.90;;;;;;1923147;74;21101;-59
2022/09/17 02:16:54;;;;;;;13.68;9.60;;;22.00;89.20;;;;;;1922574;74;21491;-59
2022/09/17 02:19:29;;;;;;;17.50;10.45;;;22.00;89.40;;;;;;1923805;74;21026;-59
2022/09/17 02:22:06;;;;;;;15.40;10.63;;;21.90;89.60;;;;;;1923795;74;21030;-60
2022/09/17 02:24:47;;;;;;;14.68;9.30;;;21.90;89.90;;;;;;1923025;74;21002;-60
2022/09/17 02:27:28;;;;;;;20.97;10.58;;;21.90;90.00;;;;;;1923823;74;21018;-60
2022/09/17 02:29:58;;;;;;;15.32;8.60;;;21.80;90.10;;;;;;1923207;74;21047;-60
2022/09/17 02:32:27;;;;;;;18.23;11.40;;;21.80;90.00;;;;;;1923768;73;21001;-60
2022/09/17 02:34:56;;;;;;;17.37;9.00;;;21.80;90.10;;;;;;1923765;74;21005;-60
2022/09/17 02:37:26;;;;;;;21.55;10.15;;;21.80;90.10;;;;;;1923746;74;21445;-60
2022/09/17 02:39:55;;;;;;;18.75;10.48;;;21.80;90.00;;;;;;1923725;74;21025;-60
2022/09/17 02:42:56;;;;;;;19.87;10.50;;;21.80;90.10;;;;;;1923661;74;21042;-60
2022/09/17 02:45:28;;;;;;;19.10;12.00;;;21.80;90.10;;;;;;1923165;74;21057;-59
2022/09/17 02:48:09;;;;;;;14.18;10.30;;;21.80;90.10;;;;;;1922686;74;21103;-59
2022/09/17 02:51:02;;;;;;;11.20;8.38;;;21.70;90.10;;;;;;1921738;74;21099;-59
2022/09/17 02:53:55;;;;;;;12.58;9.00;;;21.70;90.10;;;;;;1923684;74;21049;-59
2022/09/17 02:56:27;;;;;;;11.08;8.40;;;21.70;90.10;;;;;;1923776;74;21021;-59
2022/09/17 02:59:01;;;;;;;16.65;9.98;;;21.70;90.00;;;;;;1923136;74;21037;-59
2022/09/17 03:01:49;;;;;;;18.52;9.23;;;21.70;90.00;;;;;;1931425;74;21069;-59
2022/09/17 03:04:21;;;;;;;15.23;9.45;;;21.80;90.10;;;;;;1935622;74;21100;-59
2022/09/17 03:06:52;;;;;;;17.67;9.85;;;21.80;90.00;;;;;;1935605;74;21130;-59
2022/09/17 03:09:22;;;;;;;14.80;9.43;;;21.80;90.00;;;;;;1935616;74;21076;-59
2022/09/17 03:11:51;;;;;;;17.70;11.60;;;21.70;90.00;;;;;;1935690;74;21001;-59
2022/09/17 03:14:20;;;;;;;12.93;8.83;;;21.70;90.00;;;;;;1935614;74;21134;-59
2022/09/17 03:16:50;;;;;;;13.15;10.05;;;21.80;90.10;;;;;;1935678;74;21029;-59
2022/09/17 03:19:19;;;;;;;11.83;8.83;;;21.70;90.10;;;;;;1935781;74;21029;-59
2022/09/17 03:21:48;;;;;;;12.82;9.23;;;21.70;90.40;;;;;;1935601;74;21001;-59
2022/09/17 03:24:17;;;;;;;15.58;9.93;;;21.80;90.10;;;;;;1935715;74;21025;-59
2022/09/17 03:26:48;;;;;;;13.70;9.93;;;21.70;90.10;;;;;;1935712;74;21037;-59
2022/09/17 03:29:17;;;;;;;12.43;8.48;;;21.70;90.10;;;;;;1935503;74;21091;-59
2022/09/17 03:31:46;;;;;;;17.15;9.68;;;21.70;90.20;;;;;;1935584;74;21064;-59
2022/09/17 03:34:16;;;;;;;13.50;8.90;;;21.70;90.10;;;;;;1935541;74;21005;-59
2022/09/17 03:36:45;;;;;;;14.73;8.35;;;21.70;90.10;;;;;;1935614;74;21025;-59
2022/09/17 03:39:14;;;;;;;15.68;9.40;;;21.70;90.10;;;;;;1935584;74;21029;-59
2022/09/17 03:41:44;;;;;;;14.87;8.98;;;21.70;90.10;;;;;;1935607;74;21099;-59
2022/09/17 03:44:14;;;;;;;12.00;8.20;;;21.70;90.10;;;;;;1935589;74;21033;-59
2022/09/17 03:46:43;;;;;;;14.70;9.75;;;21.70;90.20;;;;;;1935657;74;21025;-59
2022/09/17 03:49:13;;;;;;;11.43;8.98;;;21.80;90.20;;;;;;1935582;74;21033;-59
2022/09/17 03:51:42;;;;;;;17.42;9.83;;;21.80;90.20;;;;;;1935542;74;21456;-59
2022/09/17 03:54:11;;;;;;;13.40;10.20;;;21.80;90.20;;;;;;1935517;74;21580;-59
2022/09/17 03:56:40;;;;;;;13.95;9.80;;;21.90;90.30;;;;;;1935664;74;21097;-58
2022/09/17 03:59:10;;;;;;;12.85;7.90;;;21.90;90.30;;;;;;1935652;74;21029;-59
2022/09/17 04:01:40;;;;;;;22.77;9.38;;;21.90;90.20;;;;;;1927508;74;21065;-58
2022/09/17 04:04:10;;;;;;;15.83;8.68;;;21.90;90.20;;;;;;1919561;75;21006;-59
2022/09/17 04:06:39;;;;;;;17.17;8.48;;;22.00;90.20;;;;;;1919577;75;21022;-59
2022/09/17 04:09:08;;;;;;;12.35;8.00;;;22.00;90.20;;;;;;1919673;75;21019;-59
2022/09/17 04:11:37;;;;;;;12.23;8.48;;;22.10;90.20;;;;;;1919567;75;21099;-59
2022/09/17 04:14:06;;;;;;;15.20;9.43;;;22.10;90.10;;;;;;1919563;74;21083;-59
2022/09/17 04:16:36;;;;;;;15.00;8.83;;;22.10;90.10;;;;;;1919456;75;21046;-59
2022/09/17 04:19:06;;;;;;;13.32;8.70;;;22.20;90.10;;;;;;1919488;75;21026;-59
2022/09/17 04:21:35;;;;;;;16.15;9.48;;;22.20;90.10;;;;;;1919497;75;21053;-59
2022/09/17 04:24:04;;;;;;;20.50;9.00;;;22.20;90.10;;;;;;1919607;74;21432;-59
2022/09/17 04:26:34;;;;;;;18.50;9.10;;;22.20;90.10;;;;;;1919421;74;21076;-59
2022/09/17 04:29:03;;;;;;;27.45;10.72;;;22.30;90.10;;;;;;1919366;75;21013;-59
2022/09/17 04:31:32;;;;;;;13.45;8.68;;;22.40;90.40;;;;;;1919360;75;21084;-59
2022/09/17 04:34:01;;;;;;;15.72;8.80;;;22.40;90.10;;;;;;1919446;74;21178;-59
2022/09/17 04:36:31;;;;;;;18.85;9.38;;;22.50;90.10;;;;;;1919577;75;21398;-59
2022/09/17 04:39:00;;;;;;;17.60;10.70;;;22.50;90.00;;;;;;1919439;74;21014;-59
2022/09/17 04:41:29;;;;;;;20.12;10.25;;;22.60;90.00;;;;;;1919726;75;21104;-59
2022/09/17 04:43:58;;;;;;;14.40;9.18;;;22.70;90.10;;;;;;1919535;75;21563;-59
2022/09/17 04:46:28;;;;;;;11.38;8.68;;;22.80;90.10;;;;;;1919609;75;21006;-59
2022/09/17 04:48:57;;;;;;;17.57;7.05;;;22.90;90.10;;;;;;1919546;75;21034;-59
2022/09/17 04:51:27;;;;;;;15.65;8.80;;;23.00;90.00;;;;;;1919556;75;21010;-59
2022/09/17 04:53:56;;;;;;;14.05;7.42;;;23.20;89.70;;;;;;1919611;75;21054;-59
2022/09/17 04:56:26;;;;;;;12.70;6.58;;;23.30;89.30;;;;;;1919591;74;21046;-59
2022/09/17 04:58:55;;;;;;;16.85;8.35;;;23.30;88.90;;;;;;1919496;74;21096;-59
2022/09/17 05:01:24;;;;;;;14.78;6.97;;;23.30;88.70;;;;;;1919390;74;21468;-59
2022/09/17 05:03:53;;;;;;;16.23;8.43;;;23.40;88.50;;;;;;1919431;75;21006;-59
2022/09/17 05:06:22;;;;;;;12.18;7.55;;;23.40;88.30;;;;;;1919403;74;21103;-59
2022/09/17 05:08:52;;;;;;;14.75;7.47;;;23.40;88.10;;;;;;1919679;75;21049;-59
2022/09/17 05:11:21;;;;;;;14.45;7.17;;;23.40;88.00;;;;;;1919439;74;21135;-59
2022/09/17 05:13:51;;;;;;;10.55;7.42;;;23.40;87.90;;;;;;1919671;75;21159;-59
2022/09/17 05:16:20;;;;;;;11.15;7.65;;;23.40;87.90;;;;;;1919494;74;21386;-59
2022/09/17 05:18:50;;;;;;;13.40;8.55;;;23.40;87.90;;;;;;1919689;75;21026;-59
2022/09/17 05:21:20;;;;;;;14.58;7.08;;;23.30;88.00;;;;;;1919543;75;21077;-59
2022/09/17 05:23:49;;;;;;;15.95;7.78;;;23.30;88.10;;;;;;1919452;75;21026;-59
2022/09/17 05:26:18;;;;;;;12.33;8.08;;;23.30;88.20;;;;;;1919554;74;21115;-59
2022/09/17 05:28:47;;;;;;;16.48;7.30;;;23.30;88.50;;;;;;1919582;74;21527;-59
2022/09/17 05:31:17;;;;;;;14.47;9.20;;;23.20;88.60;;;;;;1919462;75;21042;-59
2022/09/17 05:33:46;;;;;;;12.18;7.50;;;23.20;88.80;;;;;;1919535;75;21022;-59
2022/09/17 05:36:15;;;;;;;24.65;15.80;;;23.20;89.00;;;;;;1919467;75;21030;-59
2022/09/17 05:38:45;;;;;;;27.70;8.53;;;23.20;89.20;;;;;;1919568;75;21006;-59
2022/09/17 05:41:14;;;;;;;14.05;7.87;;;23.20;89.40;;;;;;1919555;74;21030;-59
2022/09/17 05:43:44;;;;;;;27.35;14.30;;;23.10;89.40;;;;;;1919423;75;21042;-59
2022/09/17 05:46:13;;;;;;;15.08;9.68;;;23.10;89.80;;;;;;1919765;74;21026;-59
2022/09/17 05:48:43;;;;;;;15.75;11.40;;;23.00;90.00;;;;;;1919498;74;21026;-59
2022/09/17 05:51:12;;;;;;;18.17;10.20;;;23.00;90.00;;;;;;1919503;75;21038;-59
2022/09/17 05:53:41;;;;;;;17.12;9.55;;;23.00;90.20;;;;;;1919436;75;21388;-59
2022/09/17 05:56:11;;;;;;;16.67;10.03;;;23.00;90.50;;;;;;1919455;75;21022;-59
2022/09/17 05:58:40;;;;;;;11.97;9.45;;;23.00;90.60;;;;;;1919409;75;21123;-59
2022/09/17 06:01:14;;;;;;;12.78;9.13;;;23.00;90.70;;;;;;1919397;74;20998;-59
2022/09/17 06:03:41;;;;;;;40.85;20.75;;;23.00;90.70;;;;;;1926643;74;21578;-59
2022/09/17 06:06:10;;;;;;;30.23;17.35;;;23.10;90.80;;;;;;1928884;74;21026;-60
2022/09/17 06:08:40;;;;;;;32.90;19.00;;;23.10;90.80;;;;;;1928968;74;21049;-59
2022/09/17 06:11:10;;;;;;;42.75;23.67;;;23.20;90.80;;;;;;1928880;74;21045;-59
2022/09/17 06:13:39;;;;;;;34.10;17.55;;;23.20;90.80;;;;;;1928995;74;21088;-59
2022/09/17 06:16:08;;;;;;;27.82;13.40;;;23.30;90.70;;;;;;1928873;74;21490;-59
2022/09/17 06:18:38;;;;;;;18.87;10.48;;;23.40;90.60;;;;;;1928996;74;21013;-60
2022/09/17 06:21:07;;;;;;;15.35;9.23;;;23.40;90.50;;;;;;1928918;74;21021;-59
2022/09/17 06:23:37;;;;;;;13.95;7.60;;;23.50;90.50;;;;;;1928810;74;21021;-60
2022/09/17 06:26:06;;;;;;;17.67;7.37;;;23.60;90.40;;;;;;1928989;74;21138;-59
2022/09/17 06:28:36;;;;;;;12.35;7.15;;;23.60;90.20;;;;;;1928726;74;21029;-60
2022/09/17 06:31:08;;;;;;;11.73;7.05;;;23.70;90.00;;;;;;1928830;74;21548;-60
2022/09/17 06:33:37;;;;;;;12.00;6.17;;;23.80;89.70;;;;;;1928883;74;21041;-60
2022/09/17 06:36:09;;;;;;;10.70;6.37;;;23.80;89.40;;;;;;1928884;74;21027;-60
2022/09/17 06:38:39;;;;;;;11.95;6.85;;;23.80;89.10;;;;;;1928834;74;21026;-60
2022/09/17 06:41:08;;;;;;;13.20;7.12;;;23.90;89.00;;;;;;1928911;74;21206;-59
2022/09/17 06:43:37;;;;;;;18.40;7.67;;;23.90;88.80;;;;;;1928762;74;21083;-60
2022/09/17 06:46:07;;;;;;;10.43;7.55;;;23.90;88.80;;;;;;1928885;74;21002;-60
2022/09/17 06:48:37;;;;;;;16.80;6.05;;;24.00;88.80;;;;;;1928907;74;21021;-59
2022/09/17 06:51:10;;;;;;;18.40;6.72;;;24.10;88.40;;;;;;1928713;74;21029;-59
2022/09/17 06:53:39;;;;;;;11.88;6.37;;;24.10;87.90;;;;;;1928890;74;21033;-60
2022/09/17 06:56:09;;;;;;;16.62;6.30;;;24.20;87.80;;;;;;1928814;74;21026;-60
2022/09/17 06:58:40;;;;;;;14.25;7.45;;;24.30;87.50;;;;;;1928833;74;21083;-60
2022/09/17 07:01:11;;;;;;;12.70;6.97;;;24.40;87.20;;;;;;1928784;74;21463;-59
2022/09/17 07:03:42;;;;;;;14.15;7.08;;;24.50;87.00;;;;;;1923723;74;21512;-60
2022/09/17 07:06:12;;;;;;;16.87;7.05;;;24.60;86.70;;;;;;1919483;75;21017;-60
2022/09/17 07:08:42;;;;;;;11.55;6.65;;;24.70;86.30;;;;;;1919553;75;21088;-60
2022/09/17 07:11:11;;;;;;;8.40;5.00;;;24.80;86.00;;;;;;1919463;75;21002;-60
2022/09/17 07:13:40;;;;;;;7.70;4.62;;;25.00;85.30;;;;;;1919464;75;21021;-60
2022/09/17 07:16:10;;;;;;;5.70;4.62;;;25.00;84.20;;;;;;1919474;75;21010;-60
2022/09/17 07:18:40;;;;;;;9.03;4.20;;;25.10;83.80;;;;;;1919621;75;21018;-60
2022/09/17 07:21:10;;;;;;;8.25;4.45;;;25.20;83.30;;;;;;1919507;75;21026;-60
2022/09/17 07:23:40;;;;;;;7.17;3.92;;;25.20;82.70;;;;;;1919470;74;21026;-60
2022/09/17 07:26:12;;;;;;;8.18;4.30;;;25.30;82.30;;;;;;1919606;74;21026;-60
2022/09/17 07:28:42;;;;;;;7.78;3.92;;;25.30;81.90;;;;;;1919507;75;21088;-60
2022/09/17 07:31:13;;;;;;;14.33;4.97;;;25.40;81.60;;;;;;1919460;75;21091;-60
2022/09/17 07:33:42;;;;;;;11.80;5.22;;;25.40;81.10;;;;;;1919565;75;21006;-60
2022/09/17 07:36:16;;;;;;;11.90;5.17;;;25.40;81.00;;;;;;1919441;75;21124;-60
2022/09/17 07:38:45;;;;;;;7.22;4.83;;;25.50;80.70;;;;;;1919579;75;21026;-60
2022/09/17 07:41:16;;;;;;;7.25;4.22;;;25.50;80.70;;;;;;1919489;75;21088;-60
2022/09/17 07:43:45;;;;;;;10.68;4.60;;;25.50;80.50;;;;;;1919419;75;21022;-60
2022/09/17 07:46:19;;;;;;;9.03;4.80;;;25.60;80.20;;;;;;1919437;75;20998;-60
2022/09/17 07:48:48;;;;;;;11.03;5.00;;;25.60;80.20;;;;;;1919459;75;21026;-60
2022/09/17 07:51:20;;;;;;;8.13;4.40;;;25.70;80.20;;;;;;1919448;74;21026;-60
2022/09/17 07:53:51;;;;;;;11.45;4.58;;;25.70;79.20;;;;;;1919515;75;21034;-60
2022/09/17 07:56:21;;;;;;;7.37;4.28;;;25.80;78.90;;;;;;1919433;75;21026;-60
2022/09/17 07:58:51;;;;;;;10.30;4.10;;;25.80;78.60;;;;;;1919527;75;21030;-60
2022/09/17 08:01:21;;;;;;;9.45;4.90;;;25.90;78.10;;;;;;1919511;75;21022;-60
2022/09/17 08:03:54;;;;;;;9.15;4.25;;;25.90;78.10;;;;;;1922493;74;21057;-60
2022/09/17 08:06:27;;;;;;;12.65;5.03;;;25.90;77.90;;;;;;1928691;74;21483;-60
2022/09/17 08:08:57;;;;;;;6.85;4.20;;;26.00;77.70;;;;;;1928707;74;21049;-60
2022/09/17 08:11:30;;;;;;;6.67;4.25;;;26.00;77.50;;;;;;1928802;74;21087;-60
2022/09/17 08:14:00;;;;;;;22.22;4.40;;;26.10;77.10;;;;;;1928709;74;21068;-60
2022/09/17 08:16:30;;;;;;;7.60;3.70;;;26.10;77.20;;;;;;1928765;74;21006;-60
2022/09/17 08:18:59;;;;;;;7.30;3.90;;;26.20;76.90;;;;;;1928806;74;21095;-60
2022/09/17 08:21:29;;;;;;;6.15;3.77;;;26.20;76.30;;;;;;1928836;74;21030;-60
2022/09/17 08:23:59;;;;;;;6.62;3.65;;;26.30;76.00;;;;;;1928739;74;21002;-60
2022/09/17 08:26:28;;;;;;;7.22;3.60;;;26.30;75.80;;;;;;1929030;74;21103;-60
2022/09/17 08:28:58;;;;;;;11.03;4.33;;;26.40;74.90;;;;;;1928709;74;21116;-60
2022/09/17 08:31:28;;;;;;;9.73;4.75;;;26.50;74.90;;;;;;1928884;74;21022;-60
2022/09/17 08:33:58;;;;;;;11.00;4.85;;;26.50;75.00;;;;;;1928698;74;21089;-60
2022/09/17 08:36:27;;;;;;;5.50;3.90;;;26.50;74.50;;;;;;1928746;74;21087;-60
2022/09/17 08:38:57;;;;;;;5.28;2.85;;;26.60;73.90;;;;;;1928517;74;21431;-60
2022/09/17 08:41:45;;;;;;;5.30;2.72;;;26.70;73.20;;;;;;1928838;74;21095;-60
2022/09/17 08:44:29;;;;;;;6.83;3.75;;;26.70;72.90;;;;;;1928253;74;21093;-60
2022/09/17 08:47:05;;;;;;;5.75;3.95;;;26.80;72.70;;;;;;1928678;74;21526;-60
2022/09/17 08:49:43;;;;;;;17.48;5.65;;;26.80;72.40;;;;;;1928393;74;21073;-60
2022/09/17 08:52:31;;;;;;;11.60;4.35;;;26.80;71.80;;;;;;1928211;74;21049;-60
2022/09/17 08:55:06;;;;;;;7.15;3.30;;;27.00;71.30;;;;;;1908801;74;21018;-60
2022/09/17 08:58:01;;;;;;;10.90;3.42;;;27.00;71.00;;;;;;1927803;74;21108;-60
2022/09/17 09:00:42;;;;;;;6.30;2.90;;;27.10;70.30;;;;;;1928946;74;21091;-60
2022/09/17 09:03:23;;;;;;;10.35;4.95;;;27.10;69.90;;;;;;1916605;74;21026;-60
2022/09/17 09:05:54;;;;;;;7.80;2.90;;;27.20;69.70;;;;;;1933961;74;21131;-60
2022/09/17 09:08:38;;;;;;;4.53;2.95;;;27.20;69.30;;;;;;1935713;74;21037;-60
2022/09/17 09:11:16;;;;;;;5.80;2.40;;;27.30;68.50;;;;;;1935662;74;21099;-60
2022/09/17 09:13:48;;;;;;;7.50;4.35;;;27.40;68.50;;;;;;1935620;74;21475;-60
2022/09/17 09:16:22;;;;;;;8.23;3.10;;;27.40;68.30;;;;;;1935644;74;21484;-60
2022/09/17 09:18:54;;;;;;;4.70;2.27;;;27.50;67.40;;;;;;1935679;74;21045;-60
2022/09/17 09:21:32;;;;;;;4.95;2.30;;;27.60;66.90;;;;;;1934437;73;21957;-60
2022/09/17 09:24:25;;;;;;;9.48;3.50;;;27.60;66.30;;;;;;1934658;74;21502;-60
2022/09/17 09:27:02;;;;;;;7.67;2.55;;;27.60;66.50;;;;;;1935592;74;21126;-60
2022/09/17 09:29:46;;;;;;;4.78;2.10;;;27.60;65.50;;;;;;1935822;74;21037;-60
2022/09/17 09:32:33;;;;;;;7.08;3.12;;;27.60;64.50;;;;;;1935433;74;21557;-60
2022/09/17 09:35:05;;;;;;;6.42;2.77;;;27.70;64.10;;;;;;1935595;74;21045;-61
2022/09/17 09:37:36;;;;;;;6.20;2.27;;;27.70;63.70;;;;;;1933784;72;21503;-61
2022/09/17 09:40:08;;;;;;;10.28;2.45;;;27.70;62.30;;;;;;1935743;74;21507;-61
2022/09/17 09:42:40;;;;;;;4.45;2.12;;;27.70;60.90;;;;;;1932541;74;21178;-61
2022/09/17 09:45:18;;;;;;;5.40;2.47;;;27.70;61.00;;;;;;1935715;74;21021;-61
2022/09/17 09:47:53;;;;;;;5.92;2.10;;;27.70;60.70;;;;;;1935743;74;21103;-61
2022/09/17 09:50:28;;;;;;;4.40;2.00;;;27.80;60.00;;;;;;1935110;74;21037;-61
2022/09/17 09:56:06;;;;;;;7.05;2.15;;;27.80;59.50;;;;;;1959829;73;21021;-60
2022/09/17 09:58:38;;;;;;;14.00;3.42;;;27.80;59.30;;;;;;1959806;73;21090;-60
2022/09/17 10:01:15;;;;;;;4.50;2.33;;;27.80;60.00;;;;;;1959954;73;21019;-60
2022/09/17 10:03:48;;;;;;;10.18;2.37;;;27.80;60.30;;;;;;1956856;73;21091;-60
2022/09/17 10:06:23;;;;;;;4.50;2.42;;;27.80;60.60;;;;;;1960056;73;21037;-60
2022/09/17 10:08:57;;;;;;;8.15;2.85;;;27.80;60.90;;;;;;1958190;73;21467;-60
2022/09/17 10:11:29;;;;;;;9.85;2.80;;;27.80;61.20;;;;;;1959961;73;21013;-59
2022/09/17 10:14:28;;;;;;;6.37;2.47;;;27.80;61.30;;;;;;1959937;73;21098;-60
2022/09/17 10:17:22;;;;;;;4.20;2.37;;;27.80;61.40;;;;;;1959885;73;21018;-60
2022/09/17 10:20:10;;;;;;;4.28;2.37;;;27.80;61.20;;;;;;1960171;73;21083;-60
2022/09/17 10:22:45;;;;;;;3.10;2.30;;;27.80;61.30;;;;;;1959930;73;21088;-61
2022/09/17 10:25:20;;;;;;;;;;;27.90;61.40;;;;;;1962898;73;21021;-61
2022/09/17 10:27:49;;;;;;;7.42;3.08;;;27.90;61.50;;;;;;1960109;73;20181;-61
2022/09/17 10:30:19;;;;;;;5.75;2.20;;;27.90;61.30;;;;;;1960102;73;21120;-61
2022/09/17 10:33:11;;;;;;;6.78;2.75;;;28.00;60.50;;;;;;1959935;73;21076;-61
2022/09/17 10:35:40;;;;;;;3.67;2.10;;;28.10;60.10;;;;;;1953401;73;21037;-60
2022/09/17 10:38:12;;;;;;;7.20;2.47;;;28.20;59.50;;;;;;1960015;73;21021;-60
2022/09/17 10:40:42;;;;;;;5.55;3.27;;;28.20;59.10;;;;;;1954168;73;21424;-61
2022/09/17 10:43:16;;;;;;;11.75;2.92;;;28.20;58.50;;;;;;1959875;73;21018;-60
2022/09/17 10:45:57;;;;;;;6.87;2.12;;;28.30;58.50;;;;;;1959858;73;21092;-60
2022/09/17 10:48:29;;;;;;;3.52;2.02;;;28.30;58.60;;;;;;1959838;73;21483;-60
2022/09/17 10:51:01;;;;;;;7.47;2.47;;;28.30;58.70;;;;;;1959986;73;21130;-61
2022/09/17 10:53:30;;;;;;;6.33;2.65;;;28.30;58.60;;;;;;1960082;73;21424;-61
2022/09/17 10:56:14;;;;;;;6.53;2.22;;;28.40;58.70;;;;;;1959745;73;21036;-61
2022/09/17 10:59:01;;;;;;;14.33;3.70;;;28.30;58.40;;;;;;1959969;73;21013;-61
2022/09/17 11:01:42;;;;;;;7.28;2.02;;;28.40;58.90;;;;;;1959059;73;21013;-61
2022/09/17 11:04:32;;;;;;;4.62;2.05;;;28.30;58.80;;;;;;1959000;73;21014;-61
2022/09/17 11:07:25;;;;;;;12.55;3.25;;;28.30;58.90;;;;;;1959036;73;21009;-61
2022/09/17 11:10:09;;;;;;;4.37;2.33;;;28.30;59.40;;;;;;1866963;76;21123;-61
2022/09/17 11:12:53;;;;;;;9.07;3.30;;;28.30;59.50;;;;;;1959993;73;21041;-61
2022/09/17 11:15:52;;;;;;;6.45;2.85;;;28.20;59.60;;;;;;1959334;73;21549;-61
2022/09/17 11:18:39;;;;;;;5.50;2.30;;;28.30;59.90;;;;;;1956648;73;21549;-61
2022/09/17 11:21:17;;;;;;;3.35;2.50;;;28.30;60.00;;;;;;1959692;73;21190;-61
2022/09/17 11:24:15;;;;;;;12.88;2.95;;;28.20;60.00;;;;;;1958164;73;21115;-60
2022/09/17 11:27:05;;;;;;;11.95;3.00;;;28.20;60.20;;;;;;1959625;73;21119;-60
2022/09/17 11:29:55;;;;;;;6.10;3.80;;;28.20;60.50;;;;;;1958306;73;21561;-60
2022/09/17 11:32:53;;;;;;;6.87;2.80;;;28.10;61.50;;;;;;1959763;73;21033;-60
2022/09/17 11:35:32;;;;;;;7.28;2.83;;;28.10;61.20;;;;;;1959683;73;21028;-61
2022/09/17 11:38:22;;;;;;;10.82;4.05;;;28.10;61.30;;;;;;1954854;73;21553;-61
2022/09/17 11:41:02;;;;;;;8.73;2.98;;;28.00;61.30;;;;;;1954997;73;21495;-62
2022/09/17 11:43:34;;;;;;;9.28;3.33;;;28.00;61.10;;;;;;1959558;73;21076;-61
2022/09/17 11:46:15;;;;;;;15.03;4.42;;;28.00;61.60;;;;;;1959509;73;20989;-61
2022/09/17 11:48:53;;;;;;;10.72;3.37;;;27.90;61.70;;;;;;1959634;73;21029;-61
2022/09/17 11:51:25;;;;;;;3.98;2.33;;;27.90;61.90;;;;;;1959453;73;21013;-61
2022/09/17 11:54:02;;;;;;;9.50;3.67;;;27.90;62.00;;;;;;1959509;73;21483;-61
2022/09/17 11:56:40;;;;;;;7.50;3.33;;;28.00;62.00;;;;;;1950140;73;21504;-60
2022/09/17 11:59:26;;;;;;;6.35;2.67;;;28.10;62.00;;;;;;1949909;73;21130;-61
2022/09/17 12:02:11;;;;;;;10.20;3.42;;;28.10;61.50;;;;;;1915256;73;21521;-61
2022/09/17 12:04:49;;;;;;;6.00;3.15;;;28.10;61.60;;;;;;1949993;73;21071;-60
2022/09/17 12:07:45;;;;;;;12.60;3.95;;;28.10;61.60;;;;;;1949646;73;21041;-60
2022/09/17 12:10:32;;;;;;;6.75;4.22;;;28.10;61.60;;;;;;1949410;73;21107;-60
2022/09/17 12:13:03;;;;;;;9.60;4.35;;;28.00;61.70;;;;;;1949873;73;21010;-60
2022/09/17 12:15:35;;;;;;;12.88;3.40;;;27.90;61.90;;;;;;1948182;73;21533;-60
2022/09/17 12:18:31;;;;;;;6.70;2.98;;;27.90;61.90;;;;;;1949959;73;21146;-60
2022/09/17 12:21:03;;;;;;;9.05;3.10;;;28.00;62.10;;;;;;1949270;73;21015;-60
2022/09/17 12:23:44;;;;;;;10.58;3.25;;;28.00;62.10;;;;;;1949921;73;21029;-60
2022/09/17 12:26:41;;;;;;;8.13;2.77;;;28.00;62.40;;;;;;1949983;73;21112;-60
2022/09/17 12:29:45;;;;;;;8.90;3.35;;;28.00;62.30;;;;;;1949132;73;21468;-60
2022/09/17 12:32:37;;;;;;;6.28;2.72;;;27.90;62.40;;;;;;1949906;73;21038;-60
2022/09/17 12:35:30;;;;;;;10.40;3.75;;;27.90;62.40;;;;;;1949932;73;21013;-61
2022/09/17 12:38:35;;;;;;;11.00;3.17;;;27.80;62.20;;;;;;1949671;73;21131;-60
2022/09/17 12:41:26;;;;;;;12.33;5.33;;;27.90;62.30;;;;;;1949928;73;21009;-61
2022/09/17 12:43:58;;;;;;;9.58;3.60;;;27.90;62.30;;;;;;1948813;73;21041;-61
2022/09/17 12:46:46;;;;;;;6.65;2.85;;;27.90;62.20;;;;;;1949940;73;21464;-61
2022/09/17 12:49:33;;;;;;;5.10;2.67;;;27.80;62.20;;;;;;1949976;73;21042;-61
2022/09/17 12:52:22;;;;;;;7.35;2.92;;;27.80;62.20;;;;;;1949748;73;21021;-61
2022/09/17 12:55:23;;;;;;;13.40;3.65;;;27.80;62.40;;;;;;1949911;73;21030;-61
2022/09/17 12:58:24;;;;;;;7.95;3.58;;;27.70;62.70;;;;;;1949920;73;21038;-61
2022/09/17 13:01:05;;;;;;;9.08;4.15;;;27.70;63.00;;;;;;1949898;73;21083;-61
2022/09/17 13:03:46;;;;;;;9.15;2.75;;;27.70;63.00;;;;;;1949962;73;20994;-61
2022/09/17 13:06:24;;;;;;;5.65;2.98;;;27.70;62.60;;;;;;1949203;73;20990;-61
2022/09/17 13:08:56;;;;;;;10.88;3.47;;;27.70;62.30;;;;;;1950068;73;21092;-61
2022/09/17 13:11:36;;;;;;;8.93;3.17;;;27.70;62.10;;;;;;1949337;73;21491;-61
2022/09/17 13:14:25;;;;;;;6.30;2.90;;;27.60;62.10;;;;;;1950092;73;21049;-61
2022/09/17 13:17:02;;;;;;;7.45;3.22;;;27.60;61.80;;;;;;1949921;73;21075;-61
2022/09/17 13:19:53;;;;;;;4.87;3.05;;;27.60;61.70;;;;;;1950074;73;21095;-60
2022/09/17 13:22:25;;;;;;;8.90;3.22;;;27.50;61.50;;;;;;1950119;73;21112;-61
2022/09/17 13:25:07;;;;;;;5.70;3.08;;;27.50;61.50;;;;;;1950039;73;21009;-60